KHOB/HOB METAR and TAF weather

Enter ICAO airport designator
Station Type Date Time Source
KHOB METAR 2020/12/06 01:15 UTC NOAA

KHOB 060115Z AUTO 27005KT 10SM FEW029 BKN034 OVC060 08/M12 A3026 RMK AO2


Station Type Date Time Source
KHOB Decoded METAR 2020/12/06 01:15 UTC NOAA

Hobbs / Lea County, NM, United States (KHOB) 32-41N 103-13W
Dec 05, 2020 - 08:15 PM EST / 2020.12.06 0115 UTC
Wind: from the W (270 degrees) at 6 MPH (5 KT):0
Visibility: 10 mile(s):0
Sky conditions: overcast
Temperature: 46 F (8 C)
Dew Point: 10 F (-12 C)
Relative Humidity: 22%
Pressure (altimeter): 30.26 in. Hg (1024 hPa)
ob: KHOB 060115Z AUTO 27005KT 10SM FEW029 BKN034 OVC060 08/M12 A3026 RMK AO2
cycle: 1

Station Type Date Time Source
KHOB TAF 2020/12/05 20:04 UTC NOAA

TAF
AMD KHOB 052002Z 0520/0618 36007KT P6SM OVC170
FM060000 32007KT P6SM SCT170
FM061400 31008KT P6SM SKC

Example: see airport list